Time;durP1;ratioP1;P1;durP2;ratioP2;P2;SDS_P1;SDS_P2;PMS_P1;PMS_P2;Temp;Humidity;BMP_temperature;BMP_pressure;BME280_temperature;BME280_humidity;BME280_pressure;Samples;Min_cycle;Max_cycle;Signal;HPM_P1;HPM_P2
2023/08/06 00:00:27;;;;;;;;;;;17.90;58.70;;;13.88;100.00;94969.09;4993905;28;20331;-55
2023/08/06 00:02:53;;;;;;;;;;;17.90;58.80;;;13.89;100.00;94979.53;4992721;28;20009;-54
2023/08/06 00:05:20;;;;;;;;;;;17.90;58.80;;;13.86;100.00;94972.09;4988622;28;20263;-54
2023/08/06 00:07:47;;;;;;;;;;;17.80;58.80;;;13.82;100.00;94975.66;4982475;28;19956;-49
2023/08/06 00:10:13;;;;;;;;;;;17.80;58.80;;;13.74;100.00;94974.47;4985234;28;19910;-56
2023/08/06 00:12:39;;;;;;;;;;;17.80;58.80;;;13.71;100.00;94974.28;4993003;28;19916;-56
2023/08/06 00:15:05;;;;;;;;;;;17.80;58.80;;;13.64;100.00;94966.66;4993196;28;20307;-50
2023/08/06 00:17:31;;;;;;;;;;;17.70;58.80;;;13.58;100.00;94971.31;4992666;28;20031;-56
2023/08/06 00:19:57;;;;;;;;;;;17.70;58.90;;;13.62;100.00;94974.97;4993430;28;19945;-54
2023/08/06 00:22:22;;;;;;;;;;;17.70;59.00;;;13.61;100.00;94972.59;4992617;28;19909;-49
2023/08/06 00:24:48;;;;;;;;;;;17.60;59.00;;;13.57;100.00;94959.03;4993035;28;19948;-51
2023/08/06 00:27:14;;;;;;;;;;;17.60;59.00;;;13.52;100.00;94972.50;4992090;28;20003;-53
2023/08/06 00:29:40;;;;;;;;;;;17.50;59.00;;;13.46;100.00;94973.69;4993221;28;20405;-56
2023/08/06 00:32:05;;;;;;;;;;;17.50;59.00;;;13.41;100.00;94971.09;4993395;28;20316;-56
2023/08/06 00:34:31;;;;;;;;;;;17.50;59.10;;;13.36;100.00;94974.69;4983374;28;19917;-54
2023/08/06 00:36:57;;;;;;;;;;;17.40;59.10;;;13.31;100.00;94971.31;4993117;28;19951;-56
2023/08/06 00:39:23;;;;;;;;;;;17.40;59.20;;;13.28;100.00;94971.88;4991918;28;19917;-53
2023/08/06 00:41:48;;;;;;;;;;;17.30;59.80;;;13.22;100.00;94965.03;4993151;28;20316;-53
2023/08/06 00:44:14;;;;;;;;;;;17.30;59.20;;;13.20;100.00;94963.44;4992742;28;19952;-57
2023/08/06 00:46:40;;;;;;;;;;;17.20;59.30;;;13.13;100.00;94960.38;4991958;28;19920;-56
2023/08/06 00:49:06;;;;;;;;;;;17.20;59.40;;;13.07;100.00;94958.88;4992920;28;19948;-56
2023/08/06 00:51:34;;;;;;;;;;;17.10;59.40;;;13.01;100.00;94959.28;4992024;28;19960;-49
2023/08/06 00:54:00;;;;;;;;;;;17.00;59.40;;;12.94;100.00;94949.75;4991459;28;20085;-49
2023/08/06 00:56:27;;;;;;;;;;;17.00;59.50;;;12.86;100.00;94957.66;4988169;28;19933;-49
2023/08/06 00:58:53;;;;;;;;;;;16.90;59.50;;;12.71;100.00;94954.13;4987146;28;19909;-49
2023/08/06 01:01:19;;;;;;;;;;;16.90;59.60;;;12.70;100.00;94952.56;4991732;28;20023;-51
2023/08/06 01:06:26;;;;;;;;;;;16.70;59.70;;;12.65;100.00;94960.66;4951267;29;19946;-47
2023/08/06 01:08:58;;;;;;;;;;;16.70;59.80;;;12.65;100.00;94957.19;4954121;28;20005;-45
2023/08/06 01:11:49;;;;;;;;;;;16.70;59.90;;;12.57;100.00;94942.63;4965286;28;19910;-46
2023/08/06 01:14:33;;;;;;;;;;;16.70;60.00;;;12.54;100.00;94945.88;4963857;28;19911;-44
2023/08/06 01:16:59;;;;;;;;;;;16.60;60.00;;;12.46;100.00;94957.22;4967750;28;19910;-44
2023/08/06 01:19:25;;;;;;;;;;;16.60;60.20;;;12.46;100.00;94954.53;4962351;28;19938;-45
2023/08/06 01:21:51;;;;;;;;;;;16.50;60.40;;;12.48;100.00;94949.72;4948905;28;20361;-44
2023/08/06 01:24:17;;;;;;;;;;;16.60;60.60;;;12.46;100.00;94947.31;4948366;28;20304;-45
2023/08/06 01:27:13;;;;;;;;;;;16.60;60.60;;;12.44;100.00;94940.69;4951907;28;19942;-46
2023/08/06 01:29:56;;;;;;;;;;;16.50;60.80;;;12.49;100.00;94944.06;4952554;28;19988;-45
2023/08/06 01:32:24;;;;;;;;;;;16.60;61.00;;;12.55;100.00;94936.78;4947821;28;20004;-47
2023/08/06 01:34:54;;;;;;;;;;;16.70;61.20;;;12.63;100.00;94935.31;4964960;28;19911;-47
2023/08/06 01:37:20;;;;;;;;;;;16.70;62.10;;;12.68;100.00;94925.31;4949416;28;19910;-45
2023/08/06 01:39:46;;;;;;;;;;;16.70;61.20;;;12.73;100.00;94917.22;4959768;28;19910;-45
2023/08/06 01:42:11;;;;;;;;;;;16.80;61.20;;;12.80;100.00;94930.22;4956561;28;19997;-46
2023/08/06 01:44:37;;;;;;;;;;;16.80;61.30;;;12.85;100.00;94926.63;4944262;28;19914;-47
2023/08/06 01:47:03;;;;;;;;;;;16.90;61.40;;;12.89;100.00;94933.78;4945362;28;19910;-48
2023/08/06 01:49:30;;;;;;;;;;;16.90;61.30;;;12.91;100.00;94941.50;4951219;28;20270;-45
2023/08/06 01:51:55;;;;;;;;;;;16.90;61.20;;;12.95;100.00;94945.19;4948083;28;20302;-45
2023/08/06 01:54:22;;;;;;;;;;;16.90;61.20;;;12.97;100.00;94943.00;4952488;28;19916;-47
2023/08/06 01:56:48;;;;;;;;;;;17.00;61.30;;;12.98;100.00;94933.13;4948743;28;20369;-47
2023/08/06 01:59:14;;;;;;;;;;;16.90;61.30;;;12.98;100.00;94941.94;4955482;28;19910;-48
2023/08/06 02:01:39;;;;;;;;;;;16.90;61.40;;;12.98;100.00;94925.09;4946504;28;19911;-48
2023/08/06 02:04:05;;;;;;;;;;;16.90;61.30;;;12.94;100.00;94919.53;4953444;28;19914;-46
2023/08/06 02:06:31;;;;;;;;;;;16.90;61.30;;;12.91;100.00;94915.59;4956856;28;20480;-47
2023/08/06 02:08:56;;;;;;;;;;;16.90;61.20;;;12.86;100.00;94904.97;4952250;28;19917;-45
2023/08/06 02:11:22;;;;;;;;;;;16.80;61.10;;;12.83;100.00;94896.75;4954202;28;19917;-46
2023/08/06 02:13:48;;;;;;;;;;;16.80;61.10;;;12.80;100.00;94886.66;4951885;28;19911;-51
2023/08/06 02:16:13;;;;;;;;;;;16.80;61.20;;;12.76;100.00;94889.13;4947590;28;19909;-49
2023/08/06 02:18:39;;;;;;;;;;;16.70;61.10;;;12.69;100.00;94894.03;4943871;28;19949;-49
2023/08/06 02:21:05;;;;;;;;;;;16.70;61.10;;;12.65;100.00;94885.03;4945867;28;19911;-45
2023/08/06 02:23:31;;;;;;;;;;;16.60;61.80;;;12.61;100.00;94889.41;4945850;28;20353;-45
2023/08/06 02:26:01;;;;;;;;;;;16.60;61.10;;;12.60;100.00;94882.47;4955737;28;19910;-48
2023/08/06 02:28:28;;;;;;;;;;;16.60;61.10;;;12.58;100.00;94890.78;4955420;28;20005;-45
2023/08/06 02:30:54;;;;;;;;;;;16.50;61.10;;;12.59;100.00;94891.56;4956512;28;19910;-47
2023/08/06 02:33:20;;;;;;;;;;;16.50;61.20;;;12.57;100.00;94889.19;4955535;28;19917;-44
2023/08/06 02:35:46;;;;;;;;;;;16.50;61.20;;;12.57;100.00;94881.19;4945055;28;20377;-45
2023/08/06 02:38:11;;;;;;;;;;;16.50;61.30;;;12.60;100.00;94877.94;4937093;28;19911;-46
2023/08/06 02:40:46;;;;;;;;;;;16.50;61.40;;;12.63;100.00;94874.66;4947199;28;19938;-45
2023/08/06 02:43:13;;;;;;;;;;;16.50;61.30;;;12.65;100.00;94871.69;4950350;28;20397;-49
2023/08/06 02:45:38;;;;;;;;;;;16.60;61.40;;;12.65;100.00;94880.50;4948433;28;19920;-47
2023/08/06 02:48:04;;;;;;;;;;;16.60;61.40;;;12.67;100.00;94875.66;4950269;28;19989;-49
2023/08/06 02:50:30;;;;;;;;;;;16.60;61.30;;;12.71;100.00;94870.50;4949405;28;19953;-46
2023/08/06 02:52:56;;;;;;;;;;;16.60;61.40;;;12.76;99.53;94872.31;4942446;28;20324;-45
2023/08/06 02:55:22;;;;;;;;;;;16.70;61.50;;;12.81;99.86;94874.88;4955879;28;19960;-48
2023/08/06 02:57:48;;;;;;;;;;;16.70;61.50;;;12.84;97.97;94874.28;4942174;28;19914;-47
2023/08/06 03:00:14;;;;;;;;;;;16.70;61.50;;;12.90;97.93;94871.22;4956140;28;20383;-51
2023/08/06 03:02:39;;;;;;;;;;;16.70;62.30;;;12.92;98.09;94873.59;4943302;28;19956;-49
2023/08/06 03:05:06;;;;;;;;;;;16.70;61.40;;;12.93;96.51;94875.97;4942261;28;19968;-46
2023/08/06 03:07:33;;;;;;;;;;;16.80;61.40;;;12.98;96.62;94882.34;4955621;28;19926;-46
2023/08/06 03:10:01;;;;;;;;;;;16.80;61.40;;;12.98;96.79;94868.97;4948093;28;20056;-44
2023/08/06 03:12:27;;;;;;;;;;;16.80;61.30;;;12.98;96.85;94872.44;4943258;28;19932;-45
2023/08/06 03:14:53;;;;;;;;;;;16.80;61.20;;;13.00;96.05;94875.56;4942914;28;20377;-49
2023/08/06 03:17:19;;;;;;;;;;;16.80;61.20;;;13.01;95.25;94871.84;4954696;28;19910;-46
2023/08/06 03:19:44;;;;;;;;;;;16.90;61.20;;;13.06;94.15;94871.72;4942958;28;20380;-45
2023/08/06 03:22:10;;;;;;;;;;;16.90;61.20;;;13.12;94.09;94867.06;4954523;28;20008;-45
2023/08/06 03:24:36;;;;;;;;;;;16.90;61.10;;;13.14;93.81;94856.88;4955338;28;20424;-44
2023/08/06 03:27:02;;;;;;;;;;;16.90;61.10;;;13.17;94.60;94867.78;4942641;28;19958;-45
2023/08/06 03:29:28;;;;;;;;;;;16.90;61.00;;;13.19;93.82;94875.47;4954418;28;19913;-45
2023/08/06 03:31:53;;;;;;;;;;;17.00;61.00;;;13.21;93.72;94865.28;4942581;28;19910;-46
2023/08/06 03:34:19;;;;;;;;;;;17.00;60.90;;;13.18;94.46;94861.31;4950891;28;19910;-47
2023/08/06 03:36:45;;;;;;;;;;;17.00;60.90;;;13.12;96.27;94857.16;4947841;28;19910;-50
2023/08/06 03:39:10;;;;;;;;;;;17.00;60.90;;;13.07;97.51;94856.50;4948616;28;20391;-47
2023/08/06 03:41:36;;;;;;;;;;;16.90;60.90;;;13.04;98.28;94851.75;4954959;28;19910;-45
2023/08/06 03:44:03;;;;;;;;;;;16.80;61.00;;;13.01;99.49;94849.66;4942474;28;20034;-45
2023/08/06 03:46:33;;;;;;;;;;;16.70;61.10;;;12.90;98.82;94841.81;4945492;28;20361;-45
2023/08/06 03:49:00;;;;;;;;;;;16.70;61.20;;;12.86;98.50;94854.19;4953610;28;19977;-46
2023/08/06 03:51:25;;;;;;;;;;;16.70;61.50;;;12.86;98.58;94853.41;4947272;28;19917;-45
2023/08/06 03:53:51;;;;;;;;;;;16.60;61.80;;;12.88;99.12;94853.88;4948813;28;19914;-45
2023/08/06 03:56:17;;;;;;;;;;;16.60;62.00;;;12.92;99.46;94854.91;4948173;28;19910;-46
2023/08/06 03:58:51;;;;;;;;;;;16.60;62.10;;;12.90;98.11;94852.50;5030784;28;19959;-44
2023/08/06 04:01:16;;;;;;;;;;;16.70;62.20;;;12.92;98.80;94850.34;5029477;28;20371;-44
2023/08/06 04:03:42;;;;;;;;;;;16.70;62.40;;;12.92;99.09;94841.53;5021604;28;20363;-45
2023/08/06 04:06:08;;;;;;;;;;;16.70;62.30;;;12.93;98.68;94854.59;4999073;28;19936;-44
2023/08/06 04:08:34;;;;;;;;;;;16.70;62.40;;;12.95;99.56;94855.09;5004859;28;19934;-45
2023/08/06 04:10:59;;;;;;;;;;;16.70;62.50;;;12.98;98.90;94860.94;5001617;28;20371;-46
2023/08/06 04:13:25;;;;;;;;;;;16.80;62.60;;;12.99;96.66;94857.97;5009531;28;19916;-44
2023/08/06 04:15:51;;;;;;;;;;;16.80;62.60;;;13.07;96.53;94853.81;5003146;28;19910;-44
2023/08/06 04:18:17;;;;;;;;;;;16.80;62.70;;;13.12;95.35;94867.06;5004378;28;19913;-44
2023/08/06 04:20:47;;;;;;;;;;;16.80;62.60;;;13.18;94.60;94864.00;5008098;28;19916;-44
2023/08/06 04:23:14;;;;;;;;;;;16.90;62.70;;;13.26;95.54;94878.59;5001748;28;19996;-43
2023/08/06 04:25:40;;;;;;;;;;;17.00;62.70;;;13.28;95.25;94872.94;5009529;28;19913;-47
2023/08/06 04:28:06;;;;;;;;;;;17.00;62.50;;;13.29;95.36;94875.31;5002780;28;19971;-45
2023/08/06 04:30:32;;;;;;;;;;;17.00;62.30;;;13.29;96.35;94899.41;4999612;28;20380;-44
2023/08/06 04:32:58;;;;;;;;;;;17.10;62.20;;;13.11;94.55;94900.25;4989400;28;19964;-44
2023/08/06 04:35:24;;;;;;;;;;;17.10;62.00;;;12.91;96.73;94912.09;4998501;28;19913;-44
2023/08/06 04:37:50;;;;;;;;;;;17.10;61.60;;;12.66;100.00;94919.50;5003142;28;19913;-44
2023/08/06 04:40:16;;;;;;;;;;;17.00;61.30;;;12.42;100.00;94940.97;4999228;28;20257;-46
2023/08/06 04:42:41;;;;;;;;;;;16.90;61.00;;;12.15;100.00;94947.00;5001628;28;19947;-44
2023/08/06 04:45:08;;;;;;;;;;;16.70;60.90;;;11.86;100.00;94935.69;5008839;28;19909;-47
2023/08/06 04:47:33;;;;;;;;;;;16.50;61.00;;;11.63;100.00;94946.09;5005325;28;19913;-49
2023/08/06 04:49:59;;;;;;;;;;;16.30;61.30;;;11.56;100.00;94954.44;4999577;28;20008;-45
2023/08/06 04:52:28;;;;;;;;;;;16.00;61.50;;;11.47;100.00;94953.47;4997813;28;19909;-45
2023/08/06 04:54:54;;;;;;;;;;;15.90;61.80;;;11.41;100.00;94957.28;4999208;28;19913;-45
2023/08/06 04:57:21;;;;;;;;;;;15.80;62.10;;;11.33;100.00;94950.69;5007045;28;19963;-44
2023/08/06 04:59:47;;;;;;;;;;;15.60;62.30;;;11.33;100.00;94950.69;4999229;28;19916;-47
2023/08/06 05:02:13;;;;;;;;;;;15.60;62.60;;;11.33;100.00;94960.56;5008332;28;20387;-47
2023/08/06 05:04:38;;;;;;;;;;;15.50;62.80;;;11.28;100.00;94952.63;4998779;28;19913;-47
2023/08/06 05:07:05;;;;;;;;;;;15.40;63.00;;;11.17;100.00;94949.28;5008736;28;19909;-47
2023/08/06 05:09:31;;;;;;;;;;;15.40;63.20;;;11.18;100.00;94960.72;4995898;28;19963;-44
2023/08/06 05:11:57;;;;;;;;;;;15.40;63.30;;;11.11;100.00;94959.19;4992129;28;19913;-47
2023/08/06 05:14:23;;;;;;;;;;;15.30;63.40;;;11.09;100.00;94968.53;4995490;28;19909;-46
2023/08/06 05:16:48;;;;;;;;;;;15.30;63.60;;;11.09;100.00;94965.88;4984359;28;19913;-46
2023/08/06 05:19:14;;;;;;;;;;;15.30;63.80;;;11.16;100.00;94976.22;4995519;28;19910;-47
2023/08/06 05:21:40;;;;;;;;;;;15.30;63.90;;;11.15;100.00;94972.75;4991573;28;19914;-48
2023/08/06 05:24:05;;;;;;;;;;;15.30;64.00;;;11.17;100.00;94969.81;4985834;28;19909;-47
2023/08/06 05:26:31;;;;;;;;;;;15.30;64.10;;;11.18;100.00;94974.84;4995519;28;19920;-46
2023/08/06 05:28:57;;;;;;;;;;;15.30;64.30;;;11.19;100.00;94980.97;4987207;28;19916;-47
2023/08/06 05:31:22;;;;;;;;;;;15.40;64.40;;;11.25;100.00;94975.31;4987649;28;19910;-49
2023/08/06 05:33:48;;;;;;;;;;;15.50;64.60;;;11.28;100.00;94979.28;4989872;28;20000;-49
2023/08/06 05:36:14;;;;;;;;;;;15.50;64.60;;;11.33;100.00;94981.91;4993977;28;20007;-45
2023/08/06 05:38:40;;;;;;;;;;;15.60;64.60;;;11.35;100.00;94985.09;4982332;28;19913;-46
2023/08/06 05:41:05;;;;;;;;;;;15.60;64.60;;;11.36;100.00;94984.00;4990577;28;19917;-45
2023/08/06 05:43:31;;;;;;;;;;;15.60;64.60;;;11.36;100.00;94994.66;4994785;28;19920;-45
2023/08/06 05:45:57;;;;;;;;;;;15.70;64.70;;;11.38;100.00;94989.84;4988780;28;19910;-47
2023/08/06 05:48:24;;;;;;;;;;;15.70;64.80;;;11.46;100.00;95005.22;4993133;28;19920;-49
2023/08/06 05:50:52;;;;;;;;;;;15.80;64.80;;;11.50;100.00;95000.91;4993930;28;19913;-50
2023/08/06 05:53:17;;;;;;;;;;;15.80;64.80;;;11.62;100.00;94994.38;4981383;28;20253;-48
2023/08/06 05:55:44;;;;;;;;;;;15.90;64.80;;;11.69;100.00;94997.47;4994742;28;19909;-48
2023/08/06 05:58:10;;;;;;;;;;;16.00;64.70;;;11.81;100.00;94997.88;4988300;28;20272;-45
2023/08/06 06:00:36;;;;;;;;;;;16.10;64.60;;;12.07;100.00;94995.72;4994419;28;19909;-45
2023/08/06 06:03:02;;;;;;;;;;;16.40;64.70;;;12.39;100.00;94994.97;4992666;28;20324;-48
2023/08/06 06:05:28;;;;;;;;;;;16.70;64.70;;;12.57;100.00;94995.28;4985599;28;19916;-49
2023/08/06 06:07:54;;;;;;;;;;;16.90;64.70;;;12.69;100.00;94996.41;4994617;28;20372;-45
2023/08/06 06:10:20;;;;;;;;;;;17.10;64.50;;;12.77;100.00;94989.59;4985458;28;19909;-46
2023/08/06 06:12:46;;;;;;;;;;;17.40;64.30;;;12.97;100.00;94985.78;4992895;28;20009;-45
2023/08/06 06:15:11;;;;;;;;;;;17.70;64.10;;;13.05;100.00;94995.81;4993972;28;19948;-47
2023/08/06 06:17:38;;;;;;;;;;;17.80;63.80;;;13.14;100.00;94995.94;4992266;28;19952;-45
2023/08/06 06:20:04;;;;;;;;;;;17.90;63.60;;;13.18;100.00;94989.69;4993721;28;20008;-49
2023/08/06 06:22:30;;;;;;;;;;;18.00;63.40;;;13.42;100.00;94991.44;4987275;28;20024;-49
2023/08/06 06:24:56;;;;;;;;;;;18.20;63.20;;;13.71;100.00;94993.81;4986689;28;20008;-51
2023/08/06 06:27:22;;;;;;;;;;;18.60;63.30;;;13.87;98.50;94992.41;4991875;28;19913;-51
2023/08/06 06:29:48;;;;;;;;;;;18.80;63.90;;;14.14;98.96;95000.72;5009521;28;19921;-47
2023/08/06 06:32:13;;;;;;;;;;;19.10;62.90;;;14.35;95.43;95001.81;4984554;28;19909;-45
2023/08/06 06:34:39;;;;;;;;;;;19.40;62.70;;;14.50;93.05;95003.38;4984240;28;19913;-44
2023/08/06 06:37:05;;;;;;;;;;;19.80;62.40;;;14.84;90.85;95002.09;4992881;28;20000;-46
2023/08/06 06:39:31;;;;;;;;;;;20.20;62.00;;;14.76;87.53;95004.41;4989528;28;19909;-46
2023/08/06 06:41:56;;;;;;;;;;;20.40;61.80;;;14.63;89.11;95018.63;4984227;28;19909;-45
2023/08/06 06:44:22;;;;;;;;;;;20.20;61.40;;;14.42;87.22;95009.47;4991839;28;19921;-46
2023/08/06 06:46:48;;;;;;;;;;;20.00;61.20;;;14.30;88.51;95023.38;4988596;28;19913;-45
2023/08/06 06:49:14;;;;;;;;;;;19.70;61.10;;;14.17;90.56;95025.00;4993678;28;19921;-45
2023/08/06 06:51:39;;;;;;;;;;;19.50;61.10;;;14.08;90.96;95024.13;4988200;28;20028;-45
2023/08/06 06:54:05;;;;;;;;;;;19.30;61.30;;;14.00;93.01;95028.28;4973581;28;19910;-45
2023/08/06 06:56:31;;;;;;;;;;;19.10;61.50;;;13.68;92.13;95029.19;4982264;28;20319;-47
2023/08/06 06:58:56;;;;;;;;;;;18.90;61.60;;;13.57;94.51;95033.13;4975290;28;19959;-48
2023/08/06 07:01:22;;;;;;;;;;;18.70;61.70;;;13.55;94.02;95028.09;4982872;28;20263;-45
2023/08/06 07:06:21;;;;;;;;;;;18.40;61.90;;;13.51;94.04;95021.75;5024927;28;19929;-46
2023/08/06 07:08:46;;;;;;;;;;;18.30;62.10;;;13.52;95.36;95027.91;5031444;28;19923;-46
2023/08/06 07:11:12;;;;;;;;;;;18.20;62.30;;;13.47;94.83;95028.78;5020127;28;20385;-46
2023/08/06 07:13:38;;;;;;;;;;;18.10;62.50;;;13.35;94.18;95029.28;5030732;28;19917;-46
2023/08/06 07:16:04;;;;;;;;;;;18.00;62.60;;;13.35;94.88;95034.63;5024068;28;20004;-47
2023/08/06 07:18:30;;;;;;;;;;;18.00;62.60;;;13.28;93.15;95041.44;5031169;28;19912;-49
2023/08/06 07:20:55;;;;;;;;;;;18.00;62.60;;;13.22;91.57;95042.56;5031755;28;19991;-47
2023/08/06 07:23:25;;;;;;;;;;;18.00;62.40;;;13.22;92.61;95053.28;5016935;28;19909;-47
2023/08/06 07:25:51;;;;;;;;;;;18.00;62.40;;;13.15;91.38;95059.00;5024533;28;19916;-47
2023/08/06 07:28:17;;;;;;;;;;;18.00;62.20;;;13.00;90.04;95054.69;5028818;28;19912;-46
2023/08/06 07:30:44;;;;;;;;;;;18.00;62.90;;;12.94;90.93;95061.19;5031853;28;19909;-47
2023/08/06 07:33:10;;;;;;;;;;;17.90;61.80;;;12.96;91.47;95054.47;5018294;28;19932;-46
2023/08/06 07:35:36;;;;;;;;;;;17.90;61.70;;;13.02;91.59;95059.75;5025306;28;19909;-46
2023/08/06 07:38:02;;;;;;;;;;;17.90;61.60;;;13.05;91.23;95067.19;5031148;28;20294;-50
2023/08/06 07:40:28;;;;;;;;;;;18.00;61.70;;;13.07;92.58;95059.69;5021676;28;19955;-48
2023/08/06 07:42:55;;;;;;;;;;;18.00;61.60;;;13.03;91.76;95061.34;5031253;28;19916;-47
2023/08/06 07:45:21;;;;;;;;;;;18.00;61.50;;;13.01;91.49;95044.81;5030551;28;20367;-49
2023/08/06 07:47:47;;;;;;;;;;;18.00;61.50;;;13.01;90.86;95061.66;5030831;28;19936;-48
2023/08/06 07:50:13;;;;;;;;;;;17.90;61.40;;;13.01;89.64;95064.31;5031629;28;20343;-43
2023/08/06 07:52:40;;;;;;;;;;;18.00;61.40;;;13.05;89.26;95054.63;5026283;28;19908;-49
2023/08/06 07:55:06;;;;;;;;;;;17.90;61.30;;;13.08;88.84;95067.41;5031093;28;19912;-46
2023/08/06 07:57:34;;;;;;;;;;;18.00;61.30;;;13.13;91.56;95074.53;5029913;28;19924;-44
2023/08/06 08:00:00;;;;;;;;;;;18.00;61.10;;;12.94;93.92;95071.91;5038255;28;20263;-47
2023/08/06 08:02:26;;;;;;;;;;;18.00;61.60;;;12.71;97.30;95073.59;5017978;28;19982;-48
2023/08/06 08:04:52;;;;;;;;;;;17.90;60.40;;;12.63;100.00;95092.94;5017883;28;19921;-45
2023/08/06 08:07:18;;;;;;;;;;;17.80;60.50;;;12.42;100.00;95092.44;5027048;28;20004;-44
2023/08/06 08:09:44;;;;;;;;;;;17.70;60.70;;;12.32;100.00;95104.06;5017907;28;19937;-48
2023/08/06 08:12:10;;;;;;;;;;;17.60;60.90;;;12.24;100.00;95099.34;5028594;28;20432;-50
2023/08/06 08:14:36;;;;;;;;;;;17.50;61.10;;;12.27;100.00;95112.91;5027712;28;19913;-43
2023/08/06 08:17:05;;;;;;;;;;;17.40;61.40;;;12.40;100.00;95111.41;5027340;28;19913;-44
2023/08/06 08:19:32;;;;;;;;;;;17.40;61.60;;;12.24;100.00;95105.47;5027499;28;19909;-44
2023/08/06 08:21:58;;;;;;;;;;;17.30;61.90;;;12.12;100.00;95107.75;5028172;28;19908;-47
2023/08/06 08:24:25;;;;;;;;;;;17.20;62.20;;;12.10;100.00;95111.81;5023535;28;19915;-43
2023/08/06 08:26:52;;;;;;;;;;;17.00;62.40;;;12.02;100.00;95108.66;5025719;28;19917;-48
2023/08/06 08:29:19;;;;;;;;;;;16.90;62.70;;;11.89;100.00;95113.91;5026243;28;19919;-47
2023/08/06 08:31:45;;;;;;;;;;;16.80;63.00;;;11.86;100.00;95120.59;5028129;28;20282;-48
2023/08/06 08:34:11;;;;;;;;;;;16.60;63.20;;;11.74;100.00;95118.28;5026109;28;19908;-48
2023/08/06 08:36:37;;;;;;;;;;;16.50;63.60;;;11.71;100.00;95128.72;5027627;28;20287;-49
2023/08/06 08:39:03;;;;;;;;;;;16.40;64.00;;;11.76;100.00;95128.69;5028624;28;19908;-45
2023/08/06 08:41:31;;;;;;;;;;;16.30;64.20;;;11.61;100.00;95121.63;5027448;28;19944;-51
2023/08/06 08:44:00;;;;;;;;;;;16.30;64.60;;;11.59;100.00;95121.09;5027673;28;19908;-47
2023/08/06 08:46:32;;;;;;;;;;;16.30;64.70;;;11.55;100.00;95128.88;5031019;28;20007;-47
2023/08/06 08:49:00;;;;;;;;;;;16.30;64.80;;;11.55;100.00;95133.41;5032029;28;19928;-47
2023/08/06 08:51:29;;;;;;;;;;;16.40;65.00;;;11.58;100.00;95133.66;5031087;28;19913;-46
2023/08/06 08:53:57;;;;;;;;;;;16.30;65.00;;;11.64;100.00;95134.41;5030198;28;19908;-47
2023/08/06 08:56:23;;;;;;;;;;;16.40;65.20;;;11.67;100.00;95133.03;5029965;28;19909;-46
2023/08/06 08:58:52;;;;;;;;;;;16.40;65.30;;;11.66;100.00;95134.09;5027175;28;20413;-46
2023/08/06 09:01:21;;;;;;;;;;;16.40;65.40;;;11.63;100.00;95132.03;5030490;28;19916;-48
2023/08/06 09:03:48;;;;;;;;;;;16.40;65.50;;;11.61;100.00;95137.63;5027516;28;20356;-46
2023/08/06 09:06:17;;;;;;;;;;;16.40;65.50;;;11.54;100.00;95129.97;5032867;28;19917;-49
2023/08/06 09:09:02;;;;;;;;;;;16.40;65.60;;;11.51;100.00;95138.53;5035141;28;19919;-47
2023/08/06 09:11:38;;;;;;;;;;;16.40;65.70;;;11.52;100.00;95134.78;5021615;28;19913;-46
2023/08/06 09:14:06;;;;;;;;;;;16.50;65.70;;;11.63;100.00;95138.16;5030590;28;19913;-46
2023/08/06 09:16:36;;;;;;;;;;;16.50;65.70;;;11.62;100.00;95151.75;5026073;28;19965;-50
2023/08/06 09:19:15;;;;;;;;;;;16.50;65.70;;;11.64;100.00;95150.41;5016026;28;19967;-50
2023/08/06 09:21:41;;;;;;;;;;;16.70;65.90;;;11.71;100.00;95139.41;5021049;28;20417;-49
2023/08/06 09:24:12;;;;;;;;;;;16.70;65.90;;;11.82;100.00;95149.69;5020862;28;19952;-48
2023/08/06 09:26:40;;;;;;;;;;;16.90;66.00;;;11.92;100.00;95153.38;5018794;28;19962;-47
2023/08/06 09:29:07;;;;;;;;;;;17.00;65.90;;;12.05;100.00;95160.69;5021981;28;19971;-49
2023/08/06 09:31:52;;;;;;;;;;;17.10;66.60;;;12.27;100.00;95163.66;5020586;28;19909;-47
2023/08/06 09:34:23;;;;;;;;;;;17.30;65.70;;;12.50;100.00;95166.56;5019483;28;19924;-50
2023/08/06 09:36:54;;;;;;;;;;;17.70;65.50;;;12.53;100.00;95158.00;5019370;28;20047;-47
2023/08/06 09:39:26;;;;;;;;;;;18.00;65.20;;;12.70;100.00;95163.66;5014745;28;19947;-51
2023/08/06 09:41:58;;;;;;;;;;;18.20;64.80;;;12.94;100.00;95162.78;5020851;28;19950;-48
2023/08/06 09:44:27;;;;;;;;;;;18.60;64.60;;;13.07;100.00;95150.59;5016512;28;19925;-50
2023/08/06 09:46:56;;;;;;;;;;;18.80;64.30;;;13.07;100.00;95161.28;5014345;28;20550;-47
2023/08/06 09:49:28;;;;;;;;;;;19.00;63.90;;;13.19;100.00;95170.47;5017582;28;20328;-47
2023/08/06 09:51:55;;;;;;;;;;;19.00;63.60;;;13.18;100.00;95170.72;5017776;28;19996;-50
2023/08/06 09:54:30;;;;;;;;;;;19.10;63.60;;;13.19;100.00;95175.00;5020307;28;19913;-50
2023/08/06 09:56:56;;;;;;;;;;;19.20;63.30;;;13.36;100.00;95169.94;5018208;28;19920;-49
2023/08/06 09:59:26;;;;;;;;;;;19.30;63.10;;;13.57;100.00;95178.47;5014964;28;20043;-49
2023/08/06 10:01:57;;;;;;;;;;;19.50;62.80;;;13.64;100.00;95175.41;5015111;28;20409;-50
2023/08/06 10:04:24;;;;;;;;;;;19.70;62.70;;;13.62;100.00;95183.69;5022599;28;19973;-47
2023/08/06 10:06:50;;;;;;;;;;;19.70;62.40;;;13.60;100.00;95174.38;5017417;28;19962;-49
2023/08/06 10:09:16;;;;;;;;;;;19.70;62.20;;;13.55;100.00;95185.19;5014199;28;19917;-52
2023/08/06 10:11:52;;;;;;;;;;;19.70;62.10;;;13.36;100.00;95186.00;5014681;28;19917;-49
2023/08/06 10:14:35;;;;;;;;;;;19.50;62.00;;;13.29;100.00;95184.78;5019652;28;19915;-49
2023/08/06 10:17:02;;;;;;;;;;;19.30;62.10;;;13.19;100.00;95188.34;5010780;28;19943;-51
2023/08/06 10:19:30;;;;;;;;;;;19.10;62.20;;;13.11;100.00;95195.16;5012858;28;20241;-50
2023/08/06 10:22:14;;;;;;;;;;;18.90;62.50;;;12.99;100.00;95194.81;5020085;28;20059;-48
2023/08/06 10:24:54;;;;;;;;;;;18.60;62.80;;;12.80;100.00;95183.31;5017052;28;20645;-52
2023/08/06 10:27:49;;;;;;;;;;;18.40;63.20;;;12.72;100.00;95193.56;5016705;28;19916;-49
2023/08/06 10:30:29;;;;;;;;;;;18.20;63.30;;;12.59;100.00;95186.22;5017669;28;19917;-53
2023/08/06 10:32:57;;;;;;;;;;;18.10;63.60;;;12.48;100.00;95176.78;5010986;28;19909;-55
2023/08/06 10:35:45;;;;;;;;;;;18.00;63.90;;;12.54;100.00;95194.34;5017225;28;19985;-53
2023/08/06 10:38:14;;;;;;;;;;;17.90;64.10;;;12.46;100.00;95197.63;5016235;28;19913;-57
2023/08/06 10:40:47;;;;;;;;;;;17.90;64.20;;;12.41;100.00;95201.16;5021194;28;19923;-52
2023/08/06 10:43:29;;;;;;;;;;;17.90;64.20;;;12.49;100.00;95199.72;5018756;28;19924;-53
2023/08/06 10:45:58;;;;;;;;;;;18.00;64.10;;;12.44;100.00;95208.59;5020627;28;20323;-51
2023/08/06 10:48:41;;;;;;;;;;;18.00;64.00;;;12.51;100.00;95213.59;5019759;28;19916;-52
2023/08/06 10:51:13;;;;;;;;;;;18.00;64.10;;;12.36;100.00;95189.75;5018920;28;19915;-51
2023/08/06 10:53:47;;;;;;;;;;;17.90;64.30;;;12.23;100.00;95218.72;5020526;28;19920;-52
2023/08/06 10:56:25;;;;;;;;;;;17.90;64.30;;;12.37;100.00;95213.47;5016138;28;19939;-50
2023/08/06 10:58:54;;;;;;;;;;;18.00;64.30;;;12.59;100.00;95206.81;5017094;28;19948;-50
2023/08/06 11:01:28;;;;;;;;;;;18.10;64.30;;;12.65;100.00;95203.00;5020431;28;20022;-50
2023/08/06 11:03:54;;;;;;;;;;;18.20;64.10;;;12.71;100.00;95210.66;5016035;28;19916;-46
2023/08/06 11:06:22;;;;;;;;;;;18.30;64.10;;;12.68;100.00;95218.47;5018556;28;19924;-50
2023/08/06 11:08:53;;;;;;;;;;;18.40;64.10;;;12.66;100.00;95221.44;5014211;28;19913;-47
2023/08/06 11:11:20;;;;;;;;;;;18.40;64.10;;;12.66;100.00;95218.75;5025765;28;20415;-53
2023/08/06 11:13:51;;;;;;;;;;;18.40;64.10;;;12.51;100.00;95218.94;5017293;28;19947;-49
2023/08/06 11:16:25;;;;;;;;;;;18.30;64.10;;;12.56;100.00;95226.88;5013734;28;19913;-48
2023/08/06 11:18:53;;;;;;;;;;;18.30;64.10;;;12.54;100.00;95225.59;5016453;28;20331;-50